Time;durP1;ratioP1;P1;durP2;ratioP2;P2;SDS_P1;SDS_P2;PMS_P1;PMS_P2;Temp;Humidity;BMP_temperature;BMP_pressure;BME280_temperature;BME280_humidity;BME280_pressure;Samples;Min_cycle;Max_cycle;Signal;HPM_P1;HPM_P2
2024/04/08 00:00:28;;;;;;;7.53;4.50;;;;;;;15.60;68.40;100345.91;5377607;26;20000;-26
2024/04/08 00:02:54;;;;;;;8.02;4.63;;;;;;;15.74;67.90;100351.97;5377395;26;20011;-27
2024/04/08 00:05:20;;;;;;;5.47;4.22;;;;;;;15.80;67.64;100345.72;5377052;26;20755;-26
2024/04/08 00:07:46;;;;;;;5.63;4.15;;;;;;;15.71;68.08;100347.06;5377010;26;20312;-26
2024/04/08 00:10:12;;;;;;;5.55;4.20;;;;;;;15.83;67.45;100350.66;5376693;26;20008;-27
2024/04/08 00:12:39;;;;;;;6.25;4.50;;;;;;;15.92;66.82;100338.59;5377078;26;20010;-26
2024/04/08 00:15:09;;;;;;;5.43;4.78;;;;;;;15.98;66.92;100335.00;5376231;26;20440;-27
2024/04/08 00:17:35;;;;;;;8.07;4.85;;;;;;;16.04;66.39;100333.28;5376099;26;20016;-27
2024/04/08 00:20:02;;;;;;;5.90;4.47;;;;;;;16.05;66.59;100336.78;5376169;26;20111;-26
2024/04/08 00:22:27;;;;;;;6.03;4.78;;;;;;;16.05;66.29;100334.09;5376850;26;20007;-26
2024/04/08 00:24:53;;;;;;;5.55;4.20;;;;;;;16.07;66.55;100337.38;5376283;26;20361;-26
2024/04/08 00:27:19;;;;;;;5.22;4.10;;;;;;;15.95;66.62;100339.97;5376208;26;20011;-26
2024/04/08 00:29:44;;;;;;;5.97;4.40;;;;;;;15.93;66.52;100339.38;5378125;26;20000;-26
2024/04/08 00:32:10;;;;;;;6.80;4.57;;;;;;;15.88;67.39;100344.59;5379354;26;19996;-25
2024/04/08 00:34:35;;;;;;;5.20;4.35;;;;;;;15.91;67.10;100347.66;5379636;26;20007;-26
2024/04/08 00:37:01;;;;;;;6.35;4.53;;;;;;;15.88;67.00;100345.44;5379896;26;20000;-25
2024/04/08 00:39:26;;;;;;;11.52;4.20;;;;;;;15.87;67.22;100353.72;5379874;26;20020;-26
2024/04/08 00:41:52;;;;;;;6.07;4.50;;;;;;;15.90;66.82;100354.09;5379433;26;20003;-26
2024/04/08 00:44:17;;;;;;;4.50;3.90;;;;;;;15.83;67.26;100351.47;5379881;26;20073;-26
2024/04/08 00:46:43;;;;;;;7.97;4.40;;;;;;;15.78;67.40;100342.44;5379746;26;20094;-26
2024/04/08 00:49:09;;;;;;;4.93;4.35;;;;;;;15.73;67.34;100340.44;5379742;26;20000;-26
2024/04/08 00:51:35;;;;;;;5.15;4.30;;;;;;;15.78;67.65;100345.13;5379017;26;19992;-26
2024/04/08 00:54:01;;;;;;;7.28;4.45;;;;;;;15.88;67.15;100336.56;5379481;26;20000;-26
2024/04/08 00:56:27;;;;;;;7.00;4.63;;;;;;;15.86;66.99;100341.31;5379418;26;20062;-26
2024/04/08 00:58:53;;;;;;;7.50;5.15;;;;;;;15.87;66.89;100338.41;5379214;26;20101;-26
2024/04/08 01:01:18;;;;;;;5.35;4.45;;;;;;;15.84;67.24;100338.88;5378907;26;20479;-26
2024/04/08 01:03:45;;;;;;;7.03;4.93;;;;;;;15.87;66.95;100342.97;5379240;26;20598;-25
2024/04/08 01:06:12;;;;;;;6.55;4.30;;;;;;;15.85;67.06;100337.81;5379156;26;20015;-25
2024/04/08 01:08:39;;;;;;;6.20;4.60;;;;;;;15.76;67.26;100340.00;5379250;26;20007;-27
2024/04/08 01:11:07;;;;;;;5.72;4.28;;;;;;;15.68;67.51;100334.88;5379145;26;19996;-25
2024/04/08 01:13:32;;;;;;;6.43;4.53;;;;;;;15.65;67.72;100343.41;5379163;26;19996;-26
2024/04/08 01:15:59;;;;;;;7.70;4.88;;;;;;;15.73;67.72;100342.28;5379372;26;20000;-26
2024/04/08 01:18:25;;;;;;;5.93;4.95;;;;;;;15.73;67.25;100336.91;5379671;26;20118;-26
2024/04/08 01:20:50;;;;;;;6.10;4.97;;;;;;;15.72;67.85;100337.94;5380056;26;20050;-27
2024/04/08 01:23:18;;;;;;;6.53;4.78;;;;;;;15.71;67.47;100333.63;5385123;26;20015;-26
2024/04/08 01:25:44;;;;;;;6.47;4.60;;;;;;;15.65;67.61;100340.72;5380234;26;20008;-26
2024/04/08 01:28:09;;;;;;;6.80;5.00;;;;;;;15.64;68.14;100339.06;5380227;26;20550;-26
2024/04/08 01:30:35;;;;;;;6.47;5.10;;;;;;;15.61;67.63;100334.97;5380244;26;20011;-26
2024/04/08 01:33:00;;;;;;;7.10;5.22;;;;;;;15.60;67.80;100340.53;5380123;26;20343;-27
2024/04/08 01:35:26;;;;;;;9.13;5.30;;;;;;;15.63;67.62;100330.19;5380256;26;19996;-26
2024/04/08 01:37:51;;;;;;;7.38;5.00;;;;;;;15.60;67.84;100337.88;5379960;26;20011;-26
2024/04/08 01:40:16;;;;;;;6.50;4.88;;;;;;;15.60;67.58;100338.69;5380087;26;20313;-26
2024/04/08 01:42:42;;;;;;;7.22;5.07;;;;;;;15.67;67.15;100332.41;5378720;26;20000;-27
2024/04/08 01:45:07;;;;;;;8.95;4.95;;;;;;;15.66;67.19;100331.59;5379576;26;20012;-26
2024/04/08 01:47:33;;;;;;;7.63;5.15;;;;;;;15.60;67.60;100327.94;5379770;26;20401;-27
2024/04/08 01:49:58;;;;;;;6.65;5.20;;;;;;;15.51;67.50;100337.31;5380144;26;20000;-26
2024/04/08 01:52:24;;;;;;;5.43;4.72;;;;;;;15.42;67.51;100334.13;5380042;26;20136;-26
2024/04/08 01:54:49;;;;;;;6.82;5.10;;;;;;;15.44;67.66;100334.72;5380072;26;20040;-26
2024/04/08 01:57:14;;;;;;;7.10;5.22;;;;;;;15.44;67.01;100331.22;5379774;26;20061;-26
2024/04/08 01:59:40;;;;;;;6.75;5.25;;;;;;;15.43;67.38;100327.69;5380063;26;19996;-26
2024/04/08 02:02:05;;;;;;;6.43;5.30;;;;;;;15.39;67.13;100336.41;5379985;26;20008;-26
2024/04/08 02:04:31;;;;;;;7.47;5.25;;;;;;;15.33;67.49;100334.63;5380040;26;20007;-26
2024/04/08 02:06:56;;;;;;;6.65;5.25;;;;;;;15.27;67.62;100317.56;5379851;26;20112;-26
2024/04/08 02:09:21;;;;;;;6.57;4.95;;;;;;;15.37;67.39;100328.59;5379666;26;20013;-26
2024/04/08 02:11:47;;;;;;;7.20;5.20;;;;;;;15.29;67.60;100333.41;5377669;26;20078;-26
2024/04/08 02:14:12;;;;;;;6.00;5.10;;;;;;;15.30;67.61;100337.72;5395023;26;20129;-26
2024/04/08 02:16:38;;;;;;;6.75;5.00;;;;;;;15.24;68.06;100334.06;5395040;26;19997;-26
2024/04/08 02:19:03;;;;;;;8.65;5.70;;;;;;;15.23;67.71;100338.63;5399837;26;20010;-26
2024/04/08 02:21:29;;;;;;;6.78;5.45;;;;;;;15.21;68.02;100332.66;5387353;26;19996;-26
2024/04/08 02:23:54;;;;;;;9.02;5.60;;;;;;;15.22;67.74;100336.16;5398152;26;19999;-26
2024/04/08 02:26:19;;;;;;;8.82;5.05;;;;;;;15.18;67.80;100338.44;5391648;26;20328;-26
2024/04/08 02:28:45;;;;;;;8.95;5.45;;;;;;;15.13;67.73;100335.59;5391082;26;20073;-26
2024/04/08 02:31:11;;;;;;;6.53;5.47;;;;;;;15.04;68.23;100331.53;5398896;26;20081;-26
2024/04/08 02:33:37;;;;;;;8.32;5.20;;;;;;;15.02;68.36;100341.66;5391850;26;20432;-26
2024/04/08 02:36:05;;;;;;;8.20;5.57;;;;;;;14.95;68.72;100340.91;5379016;26;20015;-25
2024/04/08 02:38:34;;;;;;;9.52;6.28;;;;;;;15.00;71.20;100335.69;5379322;26;20023;-26
2024/04/08 02:41:00;;;;;;;8.85;5.75;;;;;;;14.92;69.48;100341.34;5378606;26;20020;-26
2024/04/08 02:43:26;;;;;;;10.63;5.40;;;;;;;14.90;69.04;100341.56;5379638;26;20343;-26
2024/04/08 02:45:51;;;;;;;8.52;5.97;;;;;;;14.83;69.17;100338.09;5379110;26;20012;-26
2024/04/08 02:48:19;;;;;;;7.45;5.60;;;;;;;14.83;69.24;100333.56;5378982;26;20043;-27
2024/04/08 02:50:45;;;;;;;8.15;5.50;;;;;;;14.80;69.43;100338.53;5377745;26;20401;-26
2024/04/08 02:53:11;;;;;;;9.88;6.40;;;;;;;14.77;69.37;100334.41;5378407;26;19996;-26
2024/04/08 02:55:39;;;;;;;10.45;6.55;;;;;;;14.89;68.89;100347.97;5379093;26;20412;-26
2024/04/08 02:58:05;;;;;;;7.22;5.45;;;;;;;14.70;68.82;100344.38;5378568;26;20019;-26
2024/04/08 03:00:30;;;;;;;7.63;5.95;;;;;;;14.77;68.79;100345.13;5378700;26;20318;-26
2024/04/08 03:02:56;;;;;;;7.60;5.88;;;;;;;14.82;68.46;100339.97;5379020;26;20439;-26
2024/04/08 03:05:21;;;;;;;8.75;5.50;;;;;;;14.78;68.82;100344.13;5379038;26;20000;-26
2024/04/08 03:07:49;;;;;;;11.02;5.72;;;;;;;14.74;68.85;100342.09;5378770;26;20459;-26
2024/04/08 03:10:15;;;;;;;7.32;5.90;;;;;;;14.72;68.75;100346.84;5376867;26;20008;-26
2024/04/08 03:12:40;;;;;;;7.85;6.13;;;;;;;14.80;68.25;100347.41;5378214;26;20000;-25
2024/04/08 03:15:05;;;;;;;7.95;5.75;;;;;;;14.77;68.11;100352.34;5377581;26;20011;-26
2024/04/08 03:17:31;;;;;;;8.60;6.38;;;;;;;14.62;68.73;100358.84;5387726;26;20051;-26
2024/04/08 03:19:58;;;;;;;10.27;6.13;;;;;;;14.67;68.51;100358.19;5411050;26;20087;-26
2024/04/08 03:22:24;;;;;;;7.93;5.75;;;;;;;14.70;68.22;100364.97;5382394;26;20220;-26
2024/04/08 03:24:49;;;;;;;8.88;5.82;;;;;;;14.70;67.85;100365.81;5377024;26;20047;-26
2024/04/08 03:27:14;;;;;;;10.27;5.53;;;;;;;14.76;67.50;100366.81;5376417;26;20521;-26
2024/04/08 03:29:40;;;;;;;7.18;5.85;;;;;;;14.68;67.63;100375.06;5376943;26;20011;-26
2024/04/08 03:32:05;;;;;;;7.97;5.70;;;;;;;14.60;68.17;100368.13;5378902;26;20010;-26
2024/04/08 03:34:35;;;;;;;7.63;5.70;;;;;;;14.52;68.54;100377.19;5378842;26;20692;-26
2024/04/08 03:37:02;;;;;;;8.18;5.75;;;;;;;14.67;67.94;100368.91;5378437;26;20003;-26
2024/04/08 03:39:27;;;;;;;8.18;5.50;;;;;;;14.55;68.02;100376.78;5378661;26;20008;-26
2024/04/08 03:41:53;;;;;;;7.90;5.28;;;;;;;14.39;68.48;100380.78;5378557;26;20069;-27
2024/04/08 03:44:19;;;;;;;8.68;5.20;;;;;;;14.47;68.50;100379.72;5378668;26;19996;-26
2024/04/08 03:46:45;;;;;;;7.55;5.60;;;;;;;14.40;69.22;100365.53;5378658;26;20000;-26
2024/04/08 03:49:10;;;;;;;9.40;6.18;;;;;;;15.04;77.27;100374.44;5378013;26;20010;-27
2024/04/08 03:51:35;;;;;;;6.75;4.95;;;;;;;15.02;70.29;100371.16;5378043;26;20000;-25
2024/04/08 03:54:02;;;;;;;9.45;5.50;;;;;;;14.86;68.71;100384.03;5377956;26;20011;-26
2024/04/08 03:56:27;;;;;;;10.25;5.40;;;;;;;14.74;68.13;100383.09;5377687;26;20451;-27
2024/04/08 03:58:53;;;;;;;7.57;5.63;;;;;;;14.73;67.91;100385.97;5378870;26;19997;-27
2024/04/08 04:01:18;;;;;;;9.70;5.80;;;;;;;14.71;68.22;100390.72;5377972;26;19992;-27
2024/04/08 04:03:43;;;;;;;12.43;7.35;;;;;;;14.81;76.26;100394.59;5381604;26;20000;-27
2024/04/08 04:06:09;;;;;;;9.88;5.68;;;;;;;14.94;69.19;100407.06;5382289;26;20022;-27
2024/04/08 04:08:35;;;;;;;5.85;5.00;;;;;;;15.09;67.00;100403.28;5403145;26;20011;-26
2024/04/08 04:11:01;;;;;;;10.13;5.57;;;;;;;15.03;71.11;100404.97;5417659;26;20000;-26
2024/04/08 04:13:26;;;;;;;11.60;6.05;;;;;;;15.35;71.20;100411.13;5417962;26;20393;-27
2024/04/08 04:15:52;;;;;;;8.45;5.18;;;;;;;15.60;68.16;100418.34;5417459;26;20077;-27
2024/04/08 04:18:17;;;;;;;10.98;5.30;;;;;;;15.72;64.88;100411.19;5418732;26;20022;-29
2024/04/08 04:20:46;;;;;;;11.18;6.10;;;;;;;15.81;66.08;100420.63;5418668;26;20436;-27
2024/04/08 04:23:16;;;;;;;7.20;5.78;;;;;;;15.77;64.75;100411.41;5390739;26;19993;-28
2024/04/08 04:25:41;;;;;;;8.32;5.80;;;;;;;16.11;62.72;100419.94;5381965;26;20008;-27
2024/04/08 04:28:07;;;;;;;14.70;6.45;;;;;;;16.07;61.69;100424.09;5382894;26;19996;-29
2024/04/08 04:30:32;;;;;;;16.05;6.82;;;;;;;16.21;61.42;100411.34;5381578;26;20032;-28
2024/04/08 04:33:00;;;;;;;18.73;7.50;;;;;;;16.43;60.38;100425.16;5381637;26;20018;-26
2024/04/08 04:35:29;;;;;;;15.88;7.60;;;;;;;16.85;60.04;100417.19;5381101;26;20554;-27
2024/04/08 04:37:54;;;;;;;10.73;6.53;;;;;;;17.10;58.98;100413.53;5346712;26;20001;-27
2024/04/08 04:40:20;;;;;;;12.05;5.95;;;;;;;17.43;57.66;100409.47;5361083;26;20007;-26
2024/04/08 04:42:46;;;;;;;12.80;6.03;;;;;;;17.78;56.75;100412.16;5380872;26;20022;-27
2024/04/08 04:45:12;;;;;;;10.93;6.10;;;;;;;17.89;55.75;100411.38;5381188;26;20004;-26
2024/04/08 04:47:37;;;;;;;12.60;5.75;;;;;;;18.27;54.68;100404.63;5381018;26;20448;-26
2024/04/08 04:50:03;;;;;;;8.95;5.18;;;;;;;18.49;53.59;100407.50;5381213;26;19996;-26
2024/04/08 04:52:30;;;;;;;12.05;5.85;;;;;;;18.68;53.53;100407.34;5378831;26;20485;-27
2024/04/08 04:54:55;;;;;;;18.58;11.13;;;;;;;18.95;52.78;100411.09;5381304;26;20008;-27
2024/04/08 04:57:21;;;;;;;26.58;12.38;;;;;;;19.22;51.97;100409.66;5380722;26;20000;-25
2024/04/08 04:59:46;;;;;;;20.10;12.23;;;;;;;19.57;51.15;100406.69;5409056;26;20010;-26
2024/04/08 05:02:12;;;;;;;13.55;7.40;;;;;;;19.77;50.77;100411.63;5396727;26;20344;-27
2024/04/08 05:04:37;;;;;;;20.50;8.68;;;;;;;20.03;49.83;100423.59;5397026;26;19991;-25
2024/04/08 05:07:03;;;;;;;21.65;8.70;;;;;;;20.33;49.06;100424.22;5394956;26;19999;-27
2024/04/08 05:09:28;;;;;;;15.45;8.20;;;;;;;20.43;47.57;100424.38;5395665;26;19996;-27
2024/04/08 05:11:54;;;;;;;11.13;4.47;;;;;;;20.78;46.30;100426.66;5401249;26;20451;-26
2024/04/08 05:14:19;;;;;;;8.38;4.40;;;;;;;21.00;46.00;100429.34;5400588;26;19996;-26
2024/04/08 05:16:47;;;;;;;7.32;4.18;;;;;;;21.06;45.85;100425.59;5402355;26;20000;-27
2024/04/08 05:19:12;;;;;;;10.43;3.80;;;;;;;20.79;46.49;100419.34;5402322;26;20036;-27
2024/04/08 05:21:38;;;;;;;6.38;4.63;;;;;;;21.14;46.19;100426.22;5380595;26;20001;-27
2024/04/08 05:24:03;;;;;;;7.00;4.20;;;;;;;21.50;44.80;100416.50;5380796;26;20015;-26
2024/04/08 05:26:29;;;;;;;8.80;4.13;;;;;;;21.72;44.08;100423.69;5382930;26;20031;-28
2024/04/08 05:28:54;;;;;;;6.80;4.10;;;;;;;21.93;43.93;100424.63;5396630;26;20409;-27
2024/04/08 05:31:20;;;;;;;7.97;4.32;;;;;;;22.28;43.31;100429.47;5395221;26;20000;-27
2024/04/08 05:33:45;;;;;;;8.35;4.30;;;;;;;22.84;41.90;100426.09;5394405;26;20011;-28
2024/04/08 05:36:11;;;;;;;9.77;4.50;;;;;;;22.93;42.04;100419.06;5395065;26;19999;-26
2024/04/08 05:38:36;;;;;;;8.88;4.05;;;;;;;23.13;41.44;100426.44;5397564;26;20010;-27
2024/04/08 05:41:02;;;;;;;7.05;3.95;;;;;;;23.39;40.77;100432.66;5395036;26;20003;-27
2024/04/08 05:43:27;;;;;;;6.63;4.00;;;;;;;23.61;40.66;100423.44;5399621;26;19995;-27
2024/04/08 05:45:53;;;;;;;7.75;4.57;;;;;;;23.84;39.76;100426.66;5403918;26;20328;-28
2024/04/08 05:48:18;;;;;;;7.65;4.82;;;;;;;24.10;39.33;100430.94;5394688;26;19996;-27
2024/04/08 05:50:46;;;;;;;10.90;5.47;;;;;;;23.85;39.41;100431.03;5399195;26;19992;-26
2024/04/08 05:53:12;;;;;;;9.93;5.67;;;;;;;23.86;39.57;100430.75;5401082;26;20004;-27
2024/04/08 05:55:37;;;;;;;9.52;5.20;;;;;;;24.32;39.62;100433.31;5396545;26;20286;-27
2024/04/08 05:58:03;;;;;;;7.20;4.53;;;;;;;24.51;37.88;100444.41;5387537;26;20012;-26
2024/04/08 06:00:29;;;;;;;8.05;4.00;;;;;;;24.35;37.42;100446.38;5392547;26;20011;-26
2024/04/08 06:02:55;;;;;;;7.80;5.00;;;;;;;24.36;37.52;100447.97;5401129;26;20015;-27
2024/04/08 06:05:22;;;;;;;5.28;4.00;;;;;;;24.52;37.46;100440.63;5396348;26;20329;-27
2024/04/08 06:07:51;;;;;;;6.40;3.60;;;;;;;24.73;37.53;100444.03;5398737;26;20072;-26
2024/04/08 06:10:17;;;;;;;8.30;3.38;;;;;;;25.26;36.24;100439.88;5399473;26;20591;-26
2024/04/08 06:12:43;;;;;;;8.43;4.07;;;;;;;24.95;37.14;100448.25;5383851;26;20338;-27
2024/04/08 06:15:08;;;;;;;8.10;4.18;;;;;;;25.15;37.12;100452.72;5411942;26;20007;-27
2024/04/08 06:17:33;;;;;;;8.70;4.10;;;;;;;25.44;36.37;100452.00;5395187;26;20340;-28
2024/04/08 06:20:01;;;;;;;7.75;3.95;;;;;;;25.91;35.64;100456.75;5380825;26;20825;-26
2024/04/08 06:22:26;;;;;;;18.23;4.40;;;;;;;26.08;35.07;100452.75;5380558;26;20066;-27
2024/04/08 06:24:52;;;;;;;12.77;4.65;;;;;;;26.45;34.81;100452.03;5380477;26;20432;-29
2024/04/08 06:27:17;;;;;;;5.03;3.50;;;;;;;26.75;34.54;100463.69;5380097;26;20000;-28
2024/04/08 06:29:43;;;;;;;5.28;3.58;;;;;;;26.72;34.31;100456.88;5380988;26;19996;-29
2024/04/08 06:32:08;;;;;;;7.15;3.80;;;;;;;26.93;33.97;100462.06;5381175;26;20064;-29
2024/04/08 06:34:33;;;;;;;10.80;6.88;;;;;;;26.96;34.00;100456.03;5343138;26;19993;-29
2024/04/08 06:36:59;;;;;;;8.93;6.65;;;;;;;27.30;33.33;100454.97;5365782;26;20177;-27
2024/04/08 06:39:24;;;;;;;8.13;5.35;;;;;;;27.40;33.37;100467.66;5380405;26;20015;-28
2024/04/08 06:41:50;;;;;;;4.78;3.35;;;;;;;27.34;32.97;100464.19;5379808;26;20003;-26
2024/04/08 06:44:15;;;;;;;8.32;3.95;;;;;;;28.04;32.22;100460.50;5379941;26;20006;-27
2024/04/08 06:46:40;;;;;;;7.25;4.15;;;;;;;28.31;31.48;100458.91;5380275;26;19996;-28
2024/04/08 06:49:06;;;;;;;16.52;4.82;;;;;;;27.24;32.65;100462.38;5380573;26;20019;-27
2024/04/08 06:51:31;;;;;;;8.02;4.53;;;;;;;26.86;33.29;100462.41;5379656;26;20381;-27
2024/04/08 06:53:57;;;;;;;9.40;4.47;;;;;;;26.66;33.81;100462.72;5376146;26;19996;-30
2024/04/08 06:56:22;;;;;;;11.95;5.05;;;;;;;26.69;33.56;100467.56;5365500;26;20452;-26
2024/04/08 06:58:48;;;;;;;7.75;4.80;;;;;;;26.84;33.55;100459.16;5379347;26;20007;-27
2024/04/08 07:01:13;;;;;;;6.70;3.97;;;;;;;27.87;32.36;100457.50;5379889;26;20008;-27
2024/04/08 07:03:39;;;;;;;4.63;3.83;;;;;;;27.81;32.43;100462.28;5379804;26;20019;-27
2024/04/08 07:06:08;;;;;;;8.15;3.95;;;;;;;28.54;31.34;100465.28;5379547;26;20405;-27
2024/04/08 07:08:33;;;;;;;8.60;4.65;;;;;;;28.23;31.15;100465.88;5380502;26;20010;-26
2024/04/08 07:10:59;;;;;;;7.07;3.90;;;;;;;28.39;31.09;100473.78;5380125;26;19996;-27
2024/04/08 07:13:24;;;;;;;6.38;4.22;;;;;;;28.64;30.68;100470.53;5379780;26;20399;-26
2024/04/08 07:15:57;;;;;;;10.40;4.40;;;;;;;28.53;30.81;100469.13;5379646;26;19992;-29
2024/04/08 07:18:25;;;;;;;7.07;3.90;;;;;;;28.70;31.28;100467.69;5380015;26;20007;-29
2024/04/08 07:20:50;;;;;;;6.38;3.40;;;;;;;29.32;30.45;100476.13;5379719;26;19996;-29
2024/04/08 07:23:16;;;;;;;6.00;3.22;;;;;;;29.40;30.46;100464.41;5370315;26;19997;-28
2024/04/08 07:25:42;;;;;;;8.60;3.53;;;;;;;29.35;30.51;100466.47;5345477;26;20001;-28
2024/04/08 07:28:07;;;;;;;6.32;3.10;;;;;;;29.96;29.66;100462.13;5344849;26;20036;-28
2024/04/08 07:30:35;;;;;;;8.65;4.40;;;;;;;29.15;30.69;100465.84;5344736;26;20010;-27
2024/04/08 07:33:00;;;;;;;9.80;4.28;;;;;;;29.26;30.71;100471.88;5344975;26;19997;-31
2024/04/08 07:35:26;;;;;;;10.10;3.95;;;;;;;28.80;31.16;100465.50;5370092;26;20570;-27
2024/04/08 07:37:51;;;;;;;5.03;3.50;;;;;;;29.63;30.36;100467.13;5378560;26;20012;-30
2024/04/08 07:40:17;;;;;;;8.38;3.53;;;;;;;29.71;30.35;100466.34;5379425;26;20073;-27
2024/04/08 07:42:42;;;;;;;8.70;3.80;;;;;;;30.38;29.01;100462.63;5379610;26;19996;-29
2024/04/08 07:45:08;;;;;;;6.00;3.72;;;;;;;29.53;30.28;100468.19;5379624;26;20352;-28
2024/04/08 07:47:34;;;;;;;5.22;3.25;;;;;;;29.47;30.47;100461.19;5379529;26;20000;-30
2024/04/08 07:49:59;;;;;;;10.40;3.65;;;;;;;30.01;29.64;100463.94;5379542;26;20010;-27
2024/04/08 07:52:26;;;;;;;7.53;3.70;;;;;;;30.17;29.63;100458.81;5379604;26;19997;-28
2024/04/08 07:54:52;;;;;;;6.43;3.58;;;;;;;29.93;29.97;100460.03;5378979;26;20448;-33
2024/04/08 07:57:18;;;;;;;6.53;3.65;;;;;;;30.21;29.66;100457.88;5378930;26;20001;-29
2024/04/08 07:59:43;;;;;;;5.57;3.22;;;;;;;30.88;28.49;100457.84;5378756;26;20000;-30
2024/04/08 08:02:08;;;;;;;6.57;3.65;;;;;;;30.52;28.95;100446.03;5380055;26;20421;-28
2024/04/08 08:04:34;;;;;;;8.02;3.78;;;;;;;30.81;28.61;100444.59;5378966;26;20014;-30
2024/04/08 08:06:59;;;;;;;19.52;13.38;;;;;;;30.54;28.62;100445.69;5379196;26;20000;-28
2024/04/08 08:09:25;;;;;;;11.93;8.80;;;;;;;29.96;29.92;100456.66;5378731;26;20011;-28
2024/04/08 08:11:50;;;;;;;7.85;5.68;;;;;;;30.28;29.12;100453.88;5378250;26;19996;-29
2024/04/08 08:14:15;;;;;;;6.57;3.28;;;;;;;30.75;28.63;100451.38;5379475;26;19996;-26
2024/04/08 08:16:42;;;;;;;3.15;2.60;;;;;;;31.13;28.56;100437.81;5378670;26;20391;-29
2024/04/08 08:19:08;;;;;;;8.05;3.10;;;;;;;31.66;27.43;100445.97;5378600;26;20022;-27
2024/04/08 08:21:33;;;;;;;5.28;2.72;;;;;;;32.02;27.07;100445.53;5379194;26;20413;-28
2024/04/08 08:23:59;;;;;;;7.35;3.38;;;;;;;32.15;27.05;100443.69;5378781;26;20505;-28
2024/04/08 08:26:28;;;;;;;4.55;3.03;;;;;;;32.00;26.47;100441.47;5376436;26;20000;-30
2024/04/08 08:28:53;;;;;;;21.67;3.40;;;;;;;32.18;25.97;100444.97;5378616;26;20015;-28
2024/04/08 08:31:19;;;;;;;6.18;3.00;;;;;;;31.36;27.69;100446.69;5378257;26;20440;-29
2024/04/08 08:33:44;;;;;;;4.25;2.90;;;;;;;31.58;27.46;100438.56;5378150;26;19997;-27
2024/04/08 08:36:10;;;;;;;6.50;3.00;;;;;;;31.21;27.21;100435.41;5376225;26;20743;-27
2024/04/08 08:38:36;;;;;;;9.13;4.38;;;;;;;30.25;28.81;100435.28;5378357;26;20008;-27
2024/04/08 08:41:06;;;;;;;4.53;3.10;;;;;;;30.79;28.06;100431.19;5378065;26;20067;-30
2024/04/08 08:43:33;;;;;;;6.55;2.75;;;;;;;31.28;27.16;100430.19;5394384;26;20344;-30
2024/04/08 08:45:59;;;;;;;6.80;2.70;;;;;;;32.11;26.24;100423.47;5392383;26;20045;-29
2024/04/08 08:48:25;;;;;;;7.18;2.92;;;;;;;32.49;25.47;100423.38;5389434;26;19997;-32
2024/04/08 08:50:51;;;;;;;6.88;2.80;;;;;;;32.47;25.27;100420.16;5400422;26;20072;-28
2024/04/08 08:53:16;;;;;;;3.88;2.35;;;;;;;32.50;24.81;100425.00;5396507;26;20011;-27
2024/04/08 08:55:43;;;;;;;3.70;2.22;;;;;;;32.51;23.42;100421.09;5395686;26;20011;-27
2024/04/08 08:58:13;;;;;;;3.05;1.90;;;;;;;31.80;22.35;100421.81;5400191;26;20501;-30
2024/04/08 09:00:40;;;;;;;3.17;2.00;;;;;;;30.84;24.13;100421.16;5399204;26;20424;-27
2024/04/08 09:03:16;;;;;;;4.05;2.05;;;;;;;29.20;24.98;100423.81;5394441;26;20003;-28
2024/04/08 09:05:42;;;;;;;3.50;2.25;;;;;;;28.38;26.73;100426.44;5397052;26;20157;-28
2024/04/08 09:08:08;;;;;;;4.60;2.65;;;;;;;29.04;26.18;100420.59;5398447;26;19996;-29
2024/04/08 09:10:47;;;;;;;5.18;2.10;;;;;;;28.23;27.85;100410.34;5402062;26;20007;-36
2024/04/08 09:13:26;;;;;;;3.67;1.77;;;;;;;28.67;27.23;100414.34;5399678;26;20051;-28
2024/04/08 09:15:52;;;;;;;4.15;2.15;;;;;;;29.53;26.03;100413.38;5394715;26;20410;-28
2024/04/08 09:18:19;;;;;;;4.93;2.10;;;;;;;30.08;25.21;100411.34;5391900;26;19999;-29
2024/04/08 09:20:45;;;;;;;3.47;1.70;;;;;;;29.76;24.94;100410.59;5395563;26;20011;-27
2024/04/08 09:23:11;;;;;;;5.63;2.30;;;;;;;30.44;24.57;100400.13;5398138;26;20066;-27
2024/04/08 09:25:37;;;;;;;4.18;1.90;;;;;;;30.75;24.53;100407.44;5396426;26;20422;-28
2024/04/08 09:28:03;;;;;;;4.20;1.85;;;;;;;30.35;23.75;100394.66;5381249;26;20073;-28
2024/04/08 09:30:28;;;;;;;3.10;1.58;;;;;;;30.30;24.08;100394.75;5381082;26;19996;-30
2024/04/08 09:32:54;;;;;;;3.25;1.75;;;;;;;28.69;24.49;100398.41;5380923;26;20594;-29
2024/04/08 09:35:20;;;;;;;4.05;1.90;;;;;;;29.03;23.92;100395.16;5380955;26;19996;-28
2024/04/08 09:37:47;;;;;;;2.80;1.65;;;;;;;28.21;24.85;100385.22;5381223;26;19996;-28
2024/04/08 09:40:14;;;;;;;4.85;2.00;;;;;;;27.64;26.04;100391.78;5378939;26;20011;-28
2024/04/08 09:42:41;;;;;;;3.55;1.90;;;;;;;27.32;26.21;100378.16;5378921;26;19996;-28
2024/04/08 09:45:09;;;;;;;3.92;2.13;;;;;;;26.76;27.75;100386.13;5381130;26;20345;-28
2024/04/08 09:47:37;;;;;;;3.42;1.77;;;;;;;27.45;27.36;100389.09;5380276;26;20004;-27
2024/04/08 09:50:04;;;;;;;5.68;1.60;;;;;;;27.90;26.31;100383.13;5377667;26;20007;-27
2024/04/08 09:52:30;;;;;;;2.05;1.48;;;;;;;28.53;24.22;100387.00;5377323;26;20001;-28
2024/04/08 09:54:56;;;;;;;3.67;1.70;;;;;;;27.44;25.83;100376.56;5377926;26;20048;-31
2024/04/08 09:57:27;;;;;;;4.40;1.50;;;;;;;27.41;25.60;100379.09;5377852;26;20011;-29
2024/04/08 09:59:56;;;;;;;3.90;1.50;;;;;;;28.11;25.00;100377.22;5377686;26;20082;-28
2024/04/08 10:02:31;;;;;;;3.42;1.60;;;;;;;28.48;24.28;100370.66;5378147;26;20062;-31
2024/04/08 10:05:02;;;;;;;2.33;1.50;;;;;;;28.74;24.41;100373.66;5380450;26;20015;-28
2024/04/08 10:07:28;;;;;;;2.90;1.50;;;;;;;29.13;23.79;100363.97;5380366;26;20309;-31
2024/04/08 10:09:54;;;;;;;4.57;1.63;;;;;;;29.10;23.53;100374.72;5380686;26;20014;-27
2024/04/08 10:12:30;;;;;;;5.65;1.65;;;;;;;27.98;24.19;100376.13;5380471;26;19996;-28
2024/04/08 10:14:55;;;;;;;2.75;1.50;;;;;;;27.81;24.08;100363.84;5380240;26;20011;-28
2024/04/08 10:17:21;;;;;;;2.72;1.50;;;;;;;27.34;24.00;100360.38;5380615;26;20000;-27
2024/04/08 10:19:46;;;;;;;4.30;1.55;;;;;;;27.43;24.50;100355.00;5381017;26;20073;-27
2024/04/08 10:22:15;;;;;;;2.67;1.40;;;;;;;28.51;24.38;100359.09;5380835;26;20000;-26
2024/04/08 10:24:41;;;;;;;2.38;1.20;;;;;;;28.14;23.58;100357.47;5380290;26;20323;-32
2024/04/08 10:27:08;;;;;;;2.35;1.20;;;;;;;26.97;24.30;100350.31;5380395;26;19996;-27
2024/04/08 10:29:35;;;;;;;3.20;1.67;;;;;;;26.57;25.49;100345.19;5380688;26;20015;-29
2024/04/08 10:32:06;;;;;;;1.67;1.33;;;;;;;26.86;25.09;100342.28;5380294;26;20008;-27
2024/04/08 10:34:34;;;;;;;2.38;1.27;;;;;;;27.00;24.55;100342.34;5380139;26;19996;-27
2024/04/08 10:36:59;;;;;;;2.05;1.40;;;;;;;27.85;24.23;100326.59;5379958;26;20011;-27
2024/04/08 10:39:28;;;;;;;2.38;1.10;;;;;;;28.39;23.58;100339.69;5380153;26;20000;-28
2024/04/08 10:41:58;;;;;;;1.63;1.20;;;;;;;28.18;23.59;100333.84;5379994;26;19996;-27
2024/04/08 10:44:24;;;;;;;2.53;1.40;;;;;;;28.67;23.69;100345.88;5379940;26;20008;-29
2024/04/08 10:46:50;;;;;;;3.42;2.00;;;;;;;29.34;23.37;100336.84;5379813;26;20011;-28
2024/04/08 10:49:15;;;;;;;3.78;1.92;;;;;;;29.14;22.76;100327.22;5380047;26;20000;-27
2024/04/08 10:51:43;;;;;;;5.68;2.60;;;;;;;28.77;23.52;100326.50;5380010;26;20019;-28
2024/04/08 10:54:08;;;;;;;2.65;1.35;;;;;;;29.35;22.58;100322.00;5379121;26;20000;-27
2024/04/08 10:56:33;;;;;;;2.38;1.40;;;;;;;28.99;23.21;100316.63;5379416;26;20000;-28
2024/04/08 10:58:59;;;;;;;2.42;1.40;;;;;;;29.48;22.57;100308.53;5379679;26;20432;-28
2024/04/08 11:01:25;;;;;;;1.73;1.33;;;;;;;29.75;21.97;100297.34;5379602;26;20011;-27
2024/04/08 11:03:51;;;;;;;2.45;1.38;;;;;;;29.69;21.85;100301.31;5380471;26;20010;-28
2024/04/08 11:06:17;;;;;;;4.95;1.40;;;;;;;29.28;22.48;100298.91;5380043;26;19996;-28
2024/04/08 11:08:43;;;;;;;1.63;1.30;;;;;;;29.01;22.47;100306.97;5380136;26;20000;-28
2024/04/08 11:11:08;;;;;;;1.75;1.25;;;;;;;28.11;23.19;100301.44;5379412;26;20073;-29
2024/04/08 11:13:35;;;;;;;1.30;1.10;;;;;;;27.20;24.16;100291.19;5378915;26;20001;-28
2024/04/08 11:16:00;;;;;;;2.40;1.30;;;;;;;26.47;24.97;100290.78;5378878;26;19996;-28
2024/04/08 11:18:26;;;;;;;2.92;1.40;;;;;;;25.89;25.86;100280.91;5379326;26;20077;-27